Terminal Aerodrome Forecast
Issued by NWS San Angelo, TX

Current Version | Previous Version | Text Only | Print | Product List | Glossary On
Versions: 1 2 3 4 5 6 7 8 9 10 11 12 13 14 15
843
FTUS44 KSJT 201233 AAA
TAFSJT
TAF AMD
KSJT 201233Z 2013/2112 18007KT P6SM SCT015
      TEMPO 2013/2015 BKN015
     FM201500 17009KT P6SM VCSH BKN035
     FM201900 17012G18KT P6SM BKN050
     FM202300 16010KT P6SM SCT050 BKN250
     FM211100 18009KT P6SM BKN025=

USA.gov is the U.S. government's official web portal to all federal, state and local government web resources and services.